Time;durP1;ratioP1;P1;durP2;ratioP2;P2;SDS_P1;SDS_P2;PMS_P1;PMS_P2;Temp;Humidity;BMP_temperature;BMP_pressure;BME280_temperature;BME280_humidity;BME280_pressure;Samples;Min_cycle;Max_cycle;Signal;HPM_P1;HPM_P2
2021/06/23 00:00:20;;;;;;;9.15;2.33;;;;;;;11.97;69.09;102307.16;4955351;28;20037;-59
2021/06/23 00:02:45;;;;;;;10.57;2.47;;;;;;;11.96;69.27;102294.69;4947098;28;20832;-59
2021/06/23 00:05:11;;;;;;;7.97;1.90;;;;;;;11.97;69.03;102302.72;4959090;28;20030;-59
2021/06/23 00:07:36;;;;;;;12.32;2.47;;;;;;;11.98;68.93;102304.47;4954242;28;20320;-58
2021/06/23 00:10:03;;;;;;;9.93;2.05;;;;;;;11.97;69.61;102301.81;4960730;28;20026;-58
2021/06/23 00:12:30;;;;;;;18.05;2.70;;;;;;;11.97;69.32;102296.47;4953509;28;20038;-59
2021/06/23 00:14:55;;;;;;;6.78;2.00;;;;;;;11.97;69.97;102302.72;4953648;28;20038;-59
2021/06/23 00:17:21;;;;;;;14.30;2.10;;;;;;;11.97;69.39;102301.81;4955704;28;20031;-59
2021/06/23 00:19:46;;;;;;;9.82;1.92;;;;;;;11.97;69.71;102304.50;4984087;28;20081;-60
2021/06/23 00:22:11;;;;;;;6.68;2.33;;;;;;;11.96;69.62;102295.59;4953695;28;20058;-59
2021/06/23 00:24:37;;;;;;;13.90;2.50;;;;;;;11.96;69.66;102300.03;4957069;28;20068;-60
2021/06/23 00:27:03;;;;;;;10.57;1.88;;;;;;;11.94;70.39;102299.25;4949826;28;20034;-59
2021/06/23 00:29:29;;;;;;;12.20;2.22;;;;;;;11.91;70.64;102304.66;4956305;28;20042;-59
2021/06/23 00:31:54;;;;;;;6.05;2.00;;;;;;;11.91;70.99;102304.66;4946640;28;20065;-59
2021/06/23 00:34:21;;;;;;;9.20;1.83;;;;;;;11.88;71.44;102309.19;4949341;28;20026;-59
2021/06/23 00:36:47;;;;;;;8.15;1.85;;;;;;;11.87;72.41;102304.78;4954850;28;20039;-59
2021/06/23 00:39:12;;;;;;;11.10;2.38;;;;;;;11.88;72.88;102306.50;4952641;28;20042;-59
2021/06/23 00:41:38;;;;;;;12.07;2.53;;;;;;;11.89;72.78;102304.72;4956865;28;20534;-59
2021/06/23 00:44:03;;;;;;;8.80;2.15;;;;;;;11.90;72.97;102301.13;4958800;28;20023;-59
2021/06/23 00:46:29;;;;;;;12.30;2.85;;;;;;;11.88;72.59;102306.50;4954722;28;20504;-59
2021/06/23 00:48:56;;;;;;;9.23;2.05;;;;;;;11.90;72.52;102313.63;4955090;28;20038;-59
2021/06/23 00:51:22;;;;;;;9.15;2.22;;;;;;;11.90;72.70;102305.59;4985151;28;20432;-59
2021/06/23 00:53:47;;;;;;;8.38;2.20;;;;;;;11.90;72.76;102305.59;4952436;28;20348;-60
2021/06/23 00:56:15;;;;;;;10.15;1.70;;;;;;;11.91;72.67;102312.69;4957144;28;20022;-59
2021/06/23 00:58:40;;;;;;;8.60;2.30;;;;;;;11.92;72.86;102314.44;4948734;28;20114;-60
2021/06/23 01:01:08;;;;;;;11.90;2.33;;;;;;;11.91;73.11;102310.03;4944367;28;20041;-60
2021/06/23 01:03:33;;;;;;;12.63;2.25;;;;;;;11.91;72.59;102312.69;4957024;28;20521;-59
2021/06/23 01:05:59;;;;;;;15.18;2.15;;;;;;;11.91;72.89;102310.03;4973367;28;20038;-60
2021/06/23 01:08:24;;;;;;;9.23;1.83;;;;;;;11.90;73.52;102305.59;4953501;28;20019;-60
2021/06/23 01:10:50;;;;;;;12.00;2.78;;;;;;;11.88;73.87;102316.34;4954678;28;20038;-59
2021/06/23 01:13:27;;;;;;;9.70;2.10;;;;;;;11.87;73.29;102317.28;4951714;28;20686;-58
2021/06/23 01:15:55;;;;;;;7.20;1.73;;;;;;;11.85;73.94;102317.31;4951021;28;20354;-59
2021/06/23 01:18:21;;;;;;;9.45;1.90;;;;;;;11.82;74.33;102309.41;4949967;28;20092;-59
2021/06/23 01:20:47;;;;;;;7.95;1.80;;;;;;;11.79;74.75;102317.53;4958355;28;20042;-59
2021/06/23 01:23:15;;;;;;;11.27;2.28;;;;;;;11.75;75.33;102313.19;4958228;28;20037;-60
2021/06/23 01:25:41;;;;;;;6.35;1.67;;;;;;;11.70;76.00;102305.31;4956114;28;20624;-59
2021/06/23 01:28:07;;;;;;;9.02;2.10;;;;;;;11.66;76.13;102300.09;4952044;28;20506;-59
2021/06/23 01:30:33;;;;;;;7.72;2.08;;;;;;;11.62;76.54;102302.00;4951880;28;20109;-60
2021/06/23 01:32:59;;;;;;;6.22;1.88;;;;;;;11.59;76.57;102301.22;4954189;28;20200;-59
2021/06/23 01:35:25;;;;;;;15.02;2.17;;;;;;;11.54;77.98;102298.69;4956347;28;20093;-59
2021/06/23 01:37:51;;;;;;;7.85;1.80;;;;;;;11.50;77.92;102302.41;4952479;28;20050;-59
2021/06/23 01:40:16;;;;;;;13.55;2.35;;;;;;;11.48;78.21;102298.88;4955422;28;20935;-60
2021/06/23 01:42:41;;;;;;;13.05;2.20;;;;;;;11.46;78.37;102290.03;4953870;28;20516;-60
2021/06/23 01:45:07;;;;;;;7.60;2.08;;;;;;;11.44;78.33;102295.44;4953152;28;20041;-60
2021/06/23 01:47:33;;;;;;;8.75;2.40;;;;;;;11.42;78.51;102289.25;4952397;28;20458;-59
2021/06/23 01:50:00;;;;;;;9.60;2.28;;;;;;;11.40;79.61;102291.97;4953140;28;20308;-60
2021/06/23 01:52:25;;;;;;;12.32;2.42;;;;;;;11.39;80.04;102289.38;4951520;28;20046;-59
2021/06/23 01:54:52;;;;;;;5.75;1.80;;;;;;;11.36;80.48;102289.44;4954029;28;20026;-59
2021/06/23 01:57:18;;;;;;;10.73;1.95;;;;;;;11.35;79.55;102287.69;4951109;28;20023;-60
2021/06/23 01:59:43;;;;;;;10.13;2.03;;;;;;;11.36;78.90;102279.66;4948396;28;20759;-58
2021/06/23 02:02:18;;;;;;;11.38;2.40;;;;;;;11.38;78.63;102282.28;4957049;28;20763;-59
2021/06/23 02:04:50;;;;;;;8.40;1.77;;;;;;;11.39;79.45;102286.69;4951033;28;20034;-60
2021/06/23 02:07:15;;;;;;;11.85;2.38;;;;;;;11.39;78.72;102289.38;4953713;28;20054;-58
2021/06/23 02:09:50;;;;;;;9.83;2.20;;;;;;;11.39;79.48;102290.22;4952169;28;20034;-58
2021/06/23 02:12:15;;;;;;;7.07;2.00;;;;;;;11.39;79.77;102289.38;4951020;28;20757;-59
2021/06/23 02:14:41;;;;;;;9.07;2.38;;;;;;;11.38;79.70;102298.31;4945149;28;20108;-59
2021/06/23 02:17:08;;;;;;;;;;;;;;;11.39;78.52;102300.06;4955170;28;20030;-59
2021/06/23 02:19:41;;;;;;;9.82;2.20;;;;;;;11.38;78.17;102295.63;4949822;28;19917;-59
2021/06/23 02:22:12;;;;;;;7.40;1.85;;;;;;;11.37;78.04;102294.78;4951527;28;20114;-59
2021/06/23 02:24:37;;;;;;;12.23;2.28;;;;;;;11.36;78.00;102300.13;4956431;28;20027;-60
2021/06/23 02:27:03;;;;;;;12.20;2.15;;;;;;;11.35;77.23;102306.41;4955102;28;20499;-58
2021/06/23 02:29:30;;;;;;;11.10;2.17;;;;;;;11.35;76.71;102306.41;4952311;28;20054;-59
2021/06/23 02:31:55;;;;;;;5.47;1.55;;;;;;;11.37;77.12;102307.22;4964332;28;20495;-59
2021/06/23 02:34:21;;;;;;;7.40;1.73;;;;;;;11.36;76.69;102310.81;4957834;28;20117;-58
2021/06/23 02:36:46;;;;;;;10.68;2.20;;;;;;;11.37;76.42;102310.81;4946649;28;20380;-58
2021/06/23 02:39:12;;;;;;;9.23;1.73;;;;;;;11.37;76.06;102309.91;4944971;28;20034;-59
2021/06/23 02:41:37;;;;;;;6.18;1.63;;;;;;;11.37;74.63;102318.81;4958665;28;20019;-59
2021/06/23 02:44:04;;;;;;;8.73;2.15;;;;;;;11.43;74.83;102319.53;4942506;28;20117;-59
2021/06/23 02:46:29;;;;;;;5.18;1.50;;;;;;;11.46;74.05;102323.00;4950872;28;20053;-60
2021/06/23 02:48:56;;;;;;;11.13;1.90;;;;;;;11.49;74.20;102322.91;4953288;28;20030;-59
2021/06/23 02:51:23;;;;;;;7.43;1.75;;;;;;;11.52;73.88;102317.47;4953662;28;20042;-59
2021/06/23 02:53:51;;;;;;;7.57;1.83;;;;;;;11.54;73.83;102331.66;4954165;28;20058;-58
2021/06/23 02:56:17;;;;;;;9.43;1.85;;;;;;;11.55;72.99;102332.53;4953644;28;20031;-58
2021/06/23 02:58:43;;;;;;;10.13;2.30;;;;;;;11.57;73.38;102330.69;4949940;28;20471;-58
2021/06/23 03:01:09;;;;;;;;;;;;;;;11.56;72.83;102340.50;4950539;28;20117;-60
2021/06/23 03:03:36;;;;;;;6.28;1.95;;;;;;;11.57;72.93;102336.88;4951651;28;19922;-59
2021/06/23 03:06:02;;;;;;;10.27;2.03;;;;;;;11.56;73.88;102339.63;4955365;28;20551;-60
2021/06/23 03:08:28;;;;;;;9.80;1.85;;;;;;;11.55;73.55;102338.75;4948929;28;20081;-59
2021/06/23 03:10:54;;;;;;;8.15;1.85;;;;;;;11.54;73.74;102333.44;4956742;28;20711;-59
2021/06/23 03:13:20;;;;;;;7.82;1.90;;;;;;;11.52;73.45;102338.84;4953061;28;20031;-58
2021/06/23 03:15:45;;;;;;;9.98;1.92;;;;;;;11.52;73.51;102341.50;4954119;28;20041;-58
2021/06/23 03:18:10;;;;;;;13.27;2.00;;;;;;;11.52;73.31;102344.19;4952052;28;20488;-59
2021/06/23 03:20:36;;;;;;;9.77;1.70;;;;;;;11.51;73.14;102342.44;4951921;28;20809;-59
2021/06/23 03:23:02;;;;;;;6.50;1.75;;;;;;;11.53;73.32;102345.94;4951854;28;20790;-58
2021/06/23 03:25:27;;;;;;;15.38;1.70;;;;;;;11.51;73.36;102339.75;4948802;28;20511;-60
2021/06/23 03:27:58;;;;;;;16.98;3.40;;;;;;;11.50;73.76;102346.03;4952638;28;20392;-59
2021/06/23 03:30:24;;;;;;;12.23;2.20;;;;;;;11.49;73.53;102343.41;4956269;28;20057;-59
2021/06/23 03:32:50;;;;;;;7.38;2.00;;;;;;;11.49;73.30;102341.63;4946509;28;20034;-59
2021/06/23 03:35:17;;;;;;;9.70;2.22;;;;;;;11.49;73.54;102341.63;4970376;28;20066;-59
2021/06/23 03:37:43;;;;;;;6.65;1.60;;;;;;;11.50;74.02;102345.16;4953523;28;20030;-59
2021/06/23 03:40:08;;;;;;;16.33;2.33;;;;;;;11.51;73.75;102352.25;4949906;28;20038;-58
2021/06/23 03:42:34;;;;;;;5.95;1.65;;;;;;;11.54;73.12;102355.72;4947336;28;20027;-59
2021/06/23 03:44:59;;;;;;;9.63;1.98;;;;;;;11.57;73.20;102355.59;4956780;28;20026;-58
2021/06/23 03:47:24;;;;;;;10.77;1.83;;;;;;;11.59;73.59;102355.56;4946965;28;20031;-59
2021/06/23 03:49:50;;;;;;;6.70;2.25;;;;;;;11.59;73.46;102350.22;4947872;28;20030;-58
2021/06/23 03:52:15;;;;;;;10.32;2.45;;;;;;;11.60;73.21;102348.41;4954096;28;20018;-58
2021/06/23 03:54:41;;;;;;;7.50;1.55;;;;;;;11.62;73.25;102354.59;4958456;28;20041;-59
2021/06/23 03:57:06;;;;;;;6.75;1.70;;;;;;;11.66;73.98;102357.13;4957484;28;20427;-60
2021/06/23 03:59:32;;;;;;;8.98;2.25;;;;;;;11.68;73.56;102352.63;4955601;28;20355;-59
2021/06/23 04:01:57;;;;;;;5.68;1.70;;;;;;;11.74;73.54;102348.88;4951589;28;20088;-59
2021/06/23 04:04:22;;;;;;;11.82;2.05;;;;;;;11.77;73.23;102355.91;4958494;28;20065;-59
2021/06/23 04:06:48;;;;;;;10.98;2.00;;;;;;;11.78;72.95;102355.00;4952630;28;20322;-58
2021/06/23 04:09:13;;;;;;;12.38;1.90;;;;;;;11.78;72.98;102352.31;4959038;28;20176;-58
2021/06/23 04:11:39;;;;;;;7.55;1.95;;;;;;;11.78;73.23;102358.56;4954468;28;20355;-58
2021/06/23 04:14:04;;;;;;;7.88;1.75;;;;;;;11.78;73.07;102361.22;4951104;28;20792;-59
2021/06/23 04:16:30;;;;;;;6.55;1.80;;;;;;;11.80;72.90;102363.84;4953525;28;20828;-59
2021/06/23 04:18:55;;;;;;;7.68;1.58;;;;;;;11.81;72.57;102360.25;4963083;28;20053;-59
2021/06/23 04:21:20;;;;;;;9.50;1.67;;;;;;;11.82;72.26;102362.00;4950920;28;20027;-59
2021/06/23 04:23:46;;;;;;;7.15;2.10;;;;;;;11.84;72.06;102360.13;4953471;28;20081;-59
2021/06/23 04:26:12;;;;;;;6.20;1.52;;;;;;;11.84;72.62;102361.03;4955823;28;20027;-60
2021/06/23 04:28:37;;;;;;;12.48;2.28;;;;;;;11.84;72.33;102354.78;4949140;28;20033;-59
2021/06/23 04:31:02;;;;;;;11.73;1.65;;;;;;;11.86;71.97;102359.19;4950520;28;20110;-59
2021/06/23 04:33:28;;;;;;;8.32;1.92;;;;;;;11.87;71.69;102360.94;4955021;28;20038;-59
2021/06/23 04:35:55;;;;;;;6.53;1.75;;;;;;;11.90;71.51;102353.72;4953217;28;20097;-60
2021/06/23 04:38:20;;;;;;;7.55;1.90;;;;;;;11.92;72.41;102362.59;4951999;28;20252;-59
2021/06/23 04:40:46;;;;;;;11.07;1.83;;;;;;;11.92;72.16;102367.94;4944634;28;20241;-59
2021/06/23 04:43:11;;;;;;;5.50;1.60;;;;;;;11.97;72.03;102356.22;4973172;28;20031;-60
2021/06/23 04:45:36;;;;;;;13.07;1.90;;;;;;;11.97;72.30;102358.88;4955462;28;20027;-59
2021/06/23 04:48:02;;;;;;;11.60;2.17;;;;;;;12.01;72.36;102363.19;4955515;28;20368;-60
2021/06/23 04:50:27;;;;;;;4.93;1.55;;;;;;;12.06;72.34;102364.88;4955930;28;20058;-60
2021/06/23 04:52:53;;;;;;;6.72;1.48;;;;;;;12.11;72.97;102358.41;4950683;28;20434;-60
2021/06/23 04:55:18;;;;;;;6.15;1.67;;;;;;;12.16;73.17;102364.50;4954846;28;20065;-58
2021/06/23 04:57:44;;;;;;;9.95;1.92;;;;;;;12.20;72.37;102362.59;4953039;28;20030;-59
2021/06/23 05:00:10;;;;;;;9.93;1.92;;;;;;;12.23;72.10;102359.81;4956206;28;20252;-59
2021/06/23 05:02:36;;;;;;;10.60;1.90;;;;;;;12.30;71.83;102357.81;4950403;28;20039;-60
2021/06/23 05:05:02;;;;;;;14.52;2.03;;;;;;;12.36;71.91;102357.59;4958018;28;20030;-60
2021/06/23 05:07:27;;;;;;;7.78;2.00;;;;;;;12.41;71.57;102360.13;4954301;28;20023;-60
2021/06/23 05:09:52;;;;;;;10.75;2.00;;;;;;;12.49;71.65;102360.75;4948754;28;20542;-59
2021/06/23 05:12:18;;;;;;;12.43;2.10;;;;;;;12.55;70.70;102362.34;4952286;28;20117;-58
2021/06/23 05:14:44;;;;;;;9.13;1.98;;;;;;;12.68;70.73;102358.31;4952252;28;20034;-58
2021/06/23 05:17:10;;;;;;;6.65;1.67;;;;;;;12.74;70.57;102363.44;4953636;28;20034;-59
2021/06/23 05:19:37;;;;;;;8.77;1.90;;;;;;;12.78;69.92;102359.75;4952630;28;20023;-59
2021/06/23 05:22:03;;;;;;;9.73;1.97;;;;;;;12.83;70.28;102363.13;4969341;28;20034;-59
2021/06/23 05:24:31;;;;;;;7.13;1.95;;;;;;;12.92;69.65;102369.94;4954777;28;20647;-59
2021/06/23 05:26:56;;;;;;;13.10;2.15;;;;;;;12.98;68.88;102367.06;4953846;28;20026;-59
2021/06/23 05:29:22;;;;;;;8.20;1.95;;;;;;;13.04;69.03;102371.31;4950952;28;20019;-59
2021/06/23 05:31:47;;;;;;;11.98;2.22;;;;;;;13.01;68.46;102371.44;4969968;28;20536;-58
2021/06/23 05:34:12;;;;;;;10.52;1.98;;;;;;;13.08;69.19;102372.97;4954985;28;20111;-59
2021/06/23 05:36:38;;;;;;;11.73;2.00;;;;;;;13.13;69.19;102381.69;4952498;28;20270;-59
2021/06/23 05:39:05;;;;;;;10.18;2.17;;;;;;;13.23;69.34;102378.69;4952827;28;20586;-59
2021/06/23 05:41:30;;;;;;;7.13;2.10;;;;;;;13.29;69.50;102376.63;4956641;28;20061;-58
2021/06/23 05:43:55;;;;;;;9.98;2.08;;;;;;;13.35;69.71;102385.38;4948738;28;20420;-58
2021/06/23 05:46:21;;;;;;;10.77;2.47;;;;;;;13.36;68.35;102387.13;4958705;28;20096;-60
2021/06/23 05:48:46;;;;;;;9.55;2.10;;;;;;;13.31;69.20;102384.63;4952936;28;20030;-59
2021/06/23 05:51:12;;;;;;;7.15;1.80;;;;;;;13.39;69.37;102381.69;4953943;28;20046;-58
2021/06/23 05:53:37;;;;;;;9.38;2.25;;;;;;;13.33;68.67;102380.09;4948005;28;20594;-60
2021/06/23 05:56:03;;;;;;;12.90;2.47;;;;;;;13.21;69.13;102383.22;4958483;28;20033;-60
2021/06/23 05:58:28;;;;;;;5.68;1.70;;;;;;;13.24;69.37;102385.78;4949624;28;20041;-60
2021/06/23 06:00:54;;;;;;;12.35;2.47;;;;;;;13.22;68.11;102387.66;4946727;28;20030;-58
2021/06/23 06:03:19;;;;;;;9.73;1.85;;;;;;;13.24;67.83;102388.47;4946928;28;20731;-59
2021/06/23 06:05:46;;;;;;;6.88;1.65;;;;;;;13.23;67.02;102384.03;4951416;28;20027;-60
2021/06/23 06:08:12;;;;;;;7.43;1.77;;;;;;;13.33;67.31;102388.13;4952800;28;20022;-58
2021/06/23 06:10:37;;;;;;;8.57;1.90;;;;;;;13.38;66.90;102387.94;4950074;28;20026;-59
2021/06/23 06:13:03;;;;;;;9.40;1.98;;;;;;;13.37;66.84;102389.75;4950734;28;20171;-59
2021/06/23 06:15:29;;;;;;;11.60;2.00;;;;;;;13.45;67.99;102392.16;4953973;28;20418;-59
2021/06/23 06:18:02;;;;;;;9.75;2.30;;;;;;;13.43;67.17;102397.59;4961263;28;20745;-59
2021/06/23 06:20:28;;;;;;;12.30;2.13;;;;;;;13.44;66.12;102391.31;4943895;28;20083;-60
2021/06/23 06:22:53;;;;;;;5.32;1.80;;;;;;;13.53;67.00;102394.56;4952971;28;20416;-60
2021/06/23 06:25:19;;;;;;;7.93;1.90;;;;;;;13.64;65.90;102386.13;4951889;28;20139;-60
2021/06/23 06:27:44;;;;;;;4.13;1.60;;;;;;;13.66;65.98;102382.44;4949587;28;20564;-60
2021/06/23 06:30:10;;;;;;;10.10;1.90;;;;;;;13.77;66.57;102387.38;4953520;28;20035;-59
2021/06/23 06:32:35;;;;;;;13.68;2.03;;;;;;;13.88;66.40;102389.63;4952782;28;20030;-60
2021/06/23 06:35:01;;;;;;;11.25;2.13;;;;;;;14.14;67.06;102390.41;4948095;28;20112;-60
2021/06/23 06:37:26;;;;;;;7.18;2.05;;;;;;;14.33;65.13;102395.88;4946078;28;20130;-59
2021/06/23 06:39:51;;;;;;;16.20;2.10;;;;;;;14.33;63.99;102391.38;4949923;28;20049;-60
2021/06/23 06:42:17;;;;;;;6.13;1.73;;;;;;;14.48;64.41;102397.06;4941415;28;20109;-58
2021/06/23 06:44:42;;;;;;;10.13;2.00;;;;;;;14.56;63.05;102397.59;4951419;28;20034;-60
2021/06/23 06:47:07;;;;;;;6.32;1.60;;;;;;;14.55;63.17;102401.25;4950808;28;20031;-59
2021/06/23 06:49:33;;;;;;;7.20;2.28;;;;;;;14.57;62.91;102400.22;4945306;28;20054;-59
2021/06/23 06:52:00;;;;;;;12.65;1.92;;;;;;;14.62;62.87;102399.16;4950990;28;20718;-59
2021/06/23 06:54:26;;;;;;;10.17;2.00;;;;;;;14.79;62.80;102404.72;4950815;28;20031;-59
2021/06/23 06:56:52;;;;;;;8.70;2.00;;;;;;;14.77;60.69;102397.66;4955211;28;20286;-58
2021/06/23 06:59:18;;;;;;;11.18;2.88;;;;;;;14.74;59.63;102400.47;4946535;28;20026;-59
2021/06/23 07:01:45;;;;;;;9.73;1.90;;;;;;;14.70;60.09;102407.78;4949518;28;20035;-59
2021/06/23 07:04:11;;;;;;;9.97;2.30;;;;;;;15.06;60.50;102406.25;4950025;28;20282;-60
2021/06/23 07:06:37;;;;;;;10.98;2.83;;;;;;;15.12;58.57;102409.56;4951727;28;20297;-58
2021/06/23 07:09:02;;;;;;;9.88;2.22;;;;;;;14.89;57.95;102407.88;4945047;28;20621;-60
2021/06/23 07:11:28;;;;;;;11.75;1.90;;;;;;;15.01;58.62;102415.41;4948384;28;20046;-59
2021/06/23 07:13:53;;;;;;;12.05;1.80;;;;;;;15.29;58.84;102408.78;4952399;28;20166;-59
2021/06/23 07:16:19;;;;;;;8.00;2.20;;;;;;;15.54;58.00;102410.34;4949558;28;20465;-58
2021/06/23 07:18:45;;;;;;;15.45;2.00;;;;;;;15.62;58.01;102404.59;4945325;28;20433;-58
2021/06/23 07:21:16;;;;;;;16.47;2.00;;;;;;;15.85;56.36;102405.34;4948971;28;20571;-59
2021/06/23 07:23:41;;;;;;;6.87;2.13;;;;;;;16.07;55.72;102402.50;4943952;28;21010;-59
2021/06/23 07:26:07;;;;;;;8.80;1.83;;;;;;;15.95;55.10;102402.16;4950202;28;21048;-59
2021/06/23 07:28:49;;;;;;;8.63;2.20;;;;;;;16.00;54.53;102412.69;4949051;28;20617;-60
2021/06/23 07:31:19;;;;;;;14.50;2.53;;;;;;;16.25;55.28;102406.13;4955649;28;20400;-60
2021/06/23 07:33:54;;;;;;;8.77;1.93;;;;;;;16.27;53.86;102401.53;4949863;28;20300;-60
2021/06/23 07:36:40;;;;;;;9.70;2.10;;;;;;;16.38;53.17;102409.06;4954207;28;20284;-59
2021/06/23 07:39:11;;;;;;;6.88;2.33;;;;;;;16.42;53.62;102400.75;4956190;28;20289;-60
2021/06/23 07:41:37;;;;;;;6.07;2.13;;;;;;;16.48;52.46;102402.25;4959461;28;20402;-59
2021/06/23 07:44:02;;;;;;;;;;;;;;;16.71;53.48;102402.91;4958353;28;20300;-59
2021/06/23 07:46:31;;;;;;;6.33;2.10;;;;;;;17.02;52.12;102420.19;4955737;28;19921;-59
2021/06/23 07:48:57;;;;;;;10.73;2.33;;;;;;;17.18;53.26;102415.75;4953992;28;20037;-60
2021/06/23 08:10:29;;;;;;;9.10;1.73;;;;;;;16.92;51.90;102412.63;4954303;28;20690;-59
2021/06/23 08:12:55;;;;;;;11.10;2.10;;;;;;;17.16;51.77;102408.69;4953182;28;21047;-58
2021/06/23 08:15:21;;;;;;;8.77;2.13;;;;;;;17.40;51.22;102406.50;4954655;28;20400;-59
2021/06/23 08:17:47;;;;;;;9.33;2.60;;;;;;;17.62;51.13;102408.03;4950625;28;20023;-58
2021/06/23 08:20:13;;;;;;;9.38;2.05;;;;;;;17.13;52.02;102411.53;4950729;28;20919;-59
2021/06/23 08:22:38;;;;;;;6.35;1.73;;;;;;;17.27;53.15;102413.50;4949276;28;20508;-59
2021/06/23 08:25:05;;;;;;;9.20;2.10;;;;;;;17.28;51.68;102409.88;4951712;28;20038;-59
2021/06/23 08:27:30;;;;;;;7.87;1.80;;;;;;;17.06;50.67;102402.94;4949176;28;20034;-60
2021/06/23 08:29:55;;;;;;;7.95;1.77;;;;;;;17.29;51.63;102406.22;4955607;28;20845;-59
2021/06/23 08:32:21;;;;;;;12.40;2.10;;;;;;;17.82;51.21;102405.06;4958614;28;20113;-59
2021/06/23 08:34:46;;;;;;;5.72;1.65;;;;;;;18.08;49.67;102408.16;4951750;28;20177;-59
2021/06/23 08:37:11;;;;;;;8.30;1.80;;;;;;;18.20;49.52;102414.66;4957101;28;20162;-60
2021/06/23 08:39:37;;;;;;;9.38;1.90;;;;;;;17.99;49.25;102406.00;4951536;28;20026;-60
2021/06/23 08:42:03;;;;;;;10.40;2.10;;;;;;;17.60;49.85;102412.63;4957217;28;20088;-60
2021/06/23 08:44:28;;;;;;;5.90;2.00;;;;;;;17.64;48.89;102412.38;4946778;28;20850;-59
2021/06/23 08:46:54;;;;;;;7.53;2.13;;;;;;;17.80;51.17;102417.78;4957775;28;20038;-59
2021/06/23 08:49:20;;;;;;;9.50;2.00;;;;;;;17.86;49.13;102406.63;4969182;28;20030;-58
2021/06/23 08:51:45;;;;;;;9.07;2.15;;;;;;;18.18;49.46;102401.25;4955783;28;20044;-59
2021/06/23 08:54:11;;;;;;;11.67;2.10;;;;;;;18.31;49.27;102408.66;4951212;28;20278;-59
2021/06/23 08:56:38;;;;;;;9.47;2.50;;;;;;;18.59;50.47;102409.72;4988532;28;20045;-58
2021/06/23 08:59:03;;;;;;;;;;;;;;;18.20;48.21;102406.56;4947831;28;20288;-59
2021/06/23 09:01:31;;;;;;;8.10;1.90;;;;;;;18.05;48.18;102405.63;4945686;28;19930;-60
2021/06/23 09:04:10;;;;;;;8.80;2.10;;;;;;;18.25;49.45;102412.59;4954146;28;20073;-59
2021/06/23 09:06:51;;;;;;;7.63;1.80;;;;;;;18.53;50.96;102413.66;4952672;28;20297;-58
2021/06/23 09:09:20;;;;;;;16.77;2.83;;;;;;;18.41;49.25;102417.94;4948978;28;20373;-60
2021/06/23 09:11:47;;;;;;;6.63;2.13;;;;;;;18.14;48.46;102415.91;4950673;28;20297;-61
2021/06/23 09:14:15;;;;;;;8.20;1.90;;;;;;;17.83;48.41;102422.13;4953406;28;20782;-58
2021/06/23 09:17:05;;;;;;;6.17;2.00;;;;;;;17.66;49.94;102414.97;4946505;28;20321;-60
2021/06/23 09:19:51;;;;;;;11.57;2.00;;;;;;;17.49;49.04;102416.78;4952350;28;20285;-60
2021/06/23 09:22:35;;;;;;;7.65;1.95;;;;;;;17.48;48.47;102415.03;4947001;28;20294;-60
2021/06/23 09:25:04;;;;;;;4.63;1.70;;;;;;;17.74;49.11;102423.53;4949073;28;20058;-59
2021/06/23 09:27:30;;;;;;;6.83;2.20;;;;;;;18.02;48.71;102416.59;4951829;28;21582;-60
2021/06/23 09:30:23;;;;;;;8.57;1.77;;;;;;;18.44;46.92;102414.19;4950184;28;20281;-58
2021/06/23 09:33:08;;;;;;;7.83;1.80;;;;;;;18.83;47.23;102412.78;4953652;28;20285;-59
2021/06/23 09:35:35;;;;;;;7.30;1.80;;;;;;;19.18;45.83;102408.91;4950735;28;20379;-59
2021/06/23 09:38:00;;;;;;;6.20;1.97;;;;;;;19.55;45.42;102420.09;4948827;28;20298;-58
2021/06/23 09:40:29;;;;;;;7.50;2.05;;;;;;;19.31;44.25;102417.97;4980132;28;20301;-60
2021/06/23 09:43:00;;;;;;;10.03;2.07;;;;;;;19.46;45.56;102421.56;4948686;28;20018;-59
2021/06/23 09:45:27;;;;;;;8.50;1.77;;;;;;;19.78;44.11;102426.78;4959042;28;20294;-58
2021/06/23 09:48:06;;;;;;;7.37;1.97;;;;;;;20.05;43.72;102413.31;4954963;28;20293;-60
2021/06/23 09:50:34;;;;;;;5.03;2.00;;;;;;;20.15;43.50;102415.41;4949326;28;20720;-59
2021/06/23 09:53:13;;;;;;;5.20;1.40;;;;;;;20.01;41.69;102419.03;4947505;28;20294;-59
2021/06/23 09:55:40;;;;;;;5.37;1.67;;;;;;;19.97;42.90;102426.47;4952416;28;20805;-59
2021/06/23 09:58:20;;;;;;;7.47;2.03;;;;;;;20.05;46.90;102418.72;4942745;28;20725;-58
2021/06/23 10:01:05;;;;;;;4.63;1.60;;;;;;;19.93;42.17;102420.41;4947088;28;21116;-58
2021/06/23 10:03:36;;;;;;;8.73;2.13;;;;;;;19.80;42.80;102421.25;4951006;28;20628;-59
2021/06/23 10:06:22;;;;;;;7.27;2.00;;;;;;;19.94;40.12;102407.72;4952008;28;20293;-59
2021/06/23 10:08:47;;;;;;;6.17;1.63;;;;;;;19.98;41.85;102417.38;4973381;28;20292;-59
2021/06/23 10:11:13;;;;;;;7.47;1.88;;;;;;;20.34;43.10;102415.91;4953202;28;20655;-58
2021/06/23 10:13:39;;;;;;;10.03;2.27;;;;;;;20.56;45.02;102417.16;4949923;28;20135;-61
2021/06/23 10:16:05;;;;;;;;;;;;;;;20.42;46.77;102418.13;4954400;28;20289;-58
2021/06/23 10:18:30;;;;;;;4.93;2.10;;;;;;;20.50;43.09;102418.44;4948276;28;19925;-59
2021/06/23 10:20:56;;;;;;;;;;;;;;;20.55;43.42;102419.00;4957508;28;20050;-59
2021/06/23 10:23:21;;;;;;;8.70;2.53;;;;;;;20.19;43.17;102425.91;4953811;28;19969;-58
2021/06/23 10:25:46;;;;;;;;;;;;;;;20.31;44.34;102432.34;4948473;28;20062;-59
2021/06/23 10:28:12;;;;;;;7.57;2.03;;;;;;;20.36;44.25;102423.94;4947882;28;20020;-59
2021/06/23 10:30:37;;;;;;;;;;;;;;;20.43;43.59;102424.41;4951098;28;20037;-59
2021/06/23 10:33:03;;;;;;;8.20;2.13;;;;;;;20.24;42.43;102431.03;4951081;28;19937;-58
2021/06/23 10:35:29;;;;;;;10.73;2.13;;;;;;;20.17;42.82;102427.00;4950052;28;20451;-59
2021/06/23 10:37:54;;;;;;;;;;;;;;;19.91;43.91;102427.75;4952563;28;20510;-59
2021/06/23 10:40:20;;;;;;;5.77;2.07;;;;;;;19.69;46.22;102428.25;4944215;28;19962;-59
2021/06/23 10:42:46;;;;;;;7.40;1.93;;;;;;;19.73;46.99;102431.63;4952317;28;20038;-58
2021/06/23 10:45:13;;;;;;;8.20;1.73;;;;;;;19.52;45.05;102425.75;4951136;28;20899;-59
2021/06/23 10:47:41;;;;;;;9.47;2.00;;;;;;;18.96;44.87;102431.88;4952012;28;20298;-59
2021/06/23 10:50:09;;;;;;;9.13;2.50;;;;;;;18.72;49.27;102426.09;4953229;28;20286;-60
2021/06/23 10:52:40;;;;;;;5.43;2.13;;;;;;;18.75;48.06;102421.38;4943956;28;20281;-58
2021/06/23 10:55:10;;;;;;;7.17;1.93;;;;;;;18.79;46.37;102422.03;4950172;28;20332;-59
2021/06/23 10:57:38;;;;;;;7.33;2.10;;;;;;;18.64;46.84;102437.34;4950577;28;20770;-60
2021/06/23 11:00:27;;;;;;;6.97;2.27;;;;;;;18.03;47.89;102429.13;4946993;28;20324;-59
2021/06/23 11:03:05;;;;;;;11.70;2.63;;;;;;;17.79;48.85;102432.22;4946805;28;20810;-59
2021/06/23 11:05:39;;;;;;;7.10;2.20;;;;;;;18.00;50.12;102434.72;4946693;28;20313;-60
2021/06/23 11:08:26;;;;;;;9.73;2.23;;;;;;;17.98;51.33;102433.94;4951027;28;20288;-60
2021/06/23 11:10:52;;;;;;;8.60;2.65;;;;;;;17.58;50.98;102430.72;4944889;28;20286;-61
2021/06/23 11:13:23;;;;;;;13.20;2.63;;;;;;;17.75;52.88;102438.78;4946011;28;20054;-59
2021/06/23 11:15:50;;;;;;;7.07;2.40;;;;;;;17.82;51.28;102437.47;4955779;28;20294;-60
2021/06/23 11:18:35;;;;;;;7.20;2.23;;;;;;;17.91;51.00;102440.63;4950996;28;20346;-60
2021/06/23 11:21:02;;;;;;;8.73;2.20;;;;;;;18.14;50.56;102432.13;4966420;28;20607;-59
2021/06/23 11:23:45;;;;;;;7.10;2.37;;;;;;;18.59;50.68;102434.91;4950644;28;21051;-59
2021/06/23 11:26:22;;;;;;;8.43;2.40;;;;;;;18.81;48.92;102434.50;4949489;28;20336;-59
2021/06/23 11:28:50;;;;;;;6.67;2.30;;;;;;;18.68;51.39;102430.81;4946597;28;20301;-59
2021/06/23 11:31:16;;;;;;;4.40;2.37;;;;;;;18.64;49.73;102429.22;4951228;28;20285;-59
2021/06/23 11:33:42;;;;;;;7.65;2.60;;;;;;;18.50;49.31;102438.19;4937938;28;20557;-58
2021/06/23 11:36:10;;;;;;;9.63;3.08;;;;;;;18.38;50.51;102425.38;4950571;28;20396;-59
2021/06/23 11:38:35;;;;;;;11.03;2.60;;;;;;;18.55;48.84;102436.06;4946904;28;20059;-59
2021/06/23 11:41:04;;;;;;;10.85;3.03;;;;;;;18.19;49.46;102430.00;4947891;28;20401;-60
2021/06/23 11:43:29;;;;;;;10.00;3.00;;;;;;;18.55;50.47;102432.47;4953563;28;20146;-59